Minneapolis, North Carolina
Current Conditions -  °F | °C
As of 1:15 AM on Thursday 23 Oct 2014 (Local Time) from KTNB Reporting Station
Clear Clear  
Wind Chill: 33°   Ceiling: Unl
Heat Index: 41°   Visibility: 10mi
Dew Point: 34°   Wind: 14mph
Humidity: 77%   Direction: 300°WNW
Pressure: 30.12"   Gusts: 22mph
Location:  36.1°N, 81.99°W
Report Text: KTNB 230515Z AUTO 30012G19KT 10SM CLR 05/01 A3012 RMK AO2 T00500013
Loading
Personal Weather Stations






























Interactive Weather Map
Tropical Storm Tracking
New forecast layout! Learn more

10-Day Weather Forecast

Advertisements
Track Severe Weather on mobile